createdAt,value
2019-02-19T00:02:34.517Z,90.35
2019-02-19T00:07:54.211Z,90.46
2019-02-19T00:13:14.339Z,90.35
2019-02-19T00:18:33.378Z,90.16
2019-02-19T00:23:53.319Z,90.16
2019-02-19T00:29:12.759Z,90.36
2019-02-19T00:34:32.816Z,90.48
2019-02-19T00:39:54.341Z,90.62
2019-02-19T00:45:16.617Z,90.59
2019-02-19T00:50:34.166Z,90.52
2019-02-19T00:55:53.952Z,90.76
2019-02-19T01:01:13.529Z,90.69
2019-02-19T01:06:33.536Z,90.43
2019-02-19T01:11:52.599Z,90.71
2019-02-19T01:17:11.685Z,90.96
2019-02-19T01:22:31.332Z,90.87
2019-02-19T01:27:50.666Z,90.83
2019-02-19T01:33:09.963Z,90.80
2019-02-19T01:38:29.590Z,90.77
2019-02-19T01:43:49.508Z,90.99
2019-02-19T01:49:09.683Z,91.03
2019-02-19T01:54:29.759Z,91.12
2019-02-19T01:59:49.111Z,91.17
2019-02-19T02:05:09.103Z,90.88
2019-02-19T02:10:29.090Z,90.81
2019-02-19T02:15:48.202Z,91.04
2019-02-19T02:21:07.788Z,90.77
2019-02-19T02:26:26.999Z,90.68
2019-02-19T02:31:47.880Z,90.68
2019-02-19T02:37:07.762Z,90.46
2019-02-19T02:42:27.126Z,90.36
2019-02-19T02:47:46.346Z,90.43
2019-02-19T02:53:05.629Z,90.41
2019-02-19T02:58:24.954Z,90.36
2019-02-19T03:03:44.523Z,90.69
2019-02-19T03:09:04.368Z,90.71
2019-02-19T03:14:23.563Z,90.98
2019-02-19T03:19:42.719Z,90.98
2019-02-19T03:25:01.872Z,90.74
2019-02-19T03:30:21.229Z,90.58
2019-02-19T03:35:41.392Z,90.60
2019-02-19T03:41:01.295Z,90.83
2019-02-19T03:46:20.182Z,90.96
2019-02-19T03:51:39.287Z,90.92
2019-02-19T03:56:58.809Z,90.74
2019-02-19T04:02:18.056Z,90.68
2019-02-19T04:07:37.870Z,90.53
2019-02-19T04:12:56.940Z,90.61
2019-02-19T04:18:16.317Z,90.65
2019-02-19T04:23:35.945Z,90.74
2019-02-19T04:28:55.303Z,90.81
2019-02-19T04:34:14.366Z,91.00
2019-02-19T04:39:33.821Z,90.95
2019-02-19T04:44:54.199Z,90.91
2019-02-19T04:50:13.330Z,90.86
2019-02-19T04:55:32.826Z,90.91
2019-02-19T05:00:52.262Z,90.93
2019-02-19T05:06:11.719Z,90.88
2019-02-19T05:11:31.391Z,90.86
2019-02-19T05:16:52.933Z,90.87
2019-02-19T05:22:12.450Z,90.77
2019-02-19T05:27:32.002Z,90.68
2019-02-19T05:32:51.237Z,90.62
2019-02-19T05:38:10.968Z,90.57
2019-02-19T05:43:30.580Z,90.65
2019-02-19T05:48:50.797Z,90.67
2019-02-19T05:54:10.220Z,90.52
2019-02-19T05:59:29.322Z,90.52
2019-02-19T06:04:50.059Z,90.51
2019-02-19T06:10:10.205Z,90.41
2019-02-19T06:15:29.765Z,90.46
2019-02-19T06:20:49.704Z,90.50
2019-02-19T06:26:09.256Z,90.45
2019-02-19T06:31:28.107Z,90.37
2019-02-19T06:36:47.583Z,90.34
2019-02-19T06:42:07.123Z,90.31
2019-02-19T06:47:26.260Z,90.21
2019-02-19T06:52:45.325Z,90.14
2019-02-19T06:58:05.916Z,90.08
2019-02-19T07:03:47.777Z,90.08
2019-02-19T07:09:06.870Z,90.09
2019-02-19T07:14:26.477Z,90.24
2019-02-19T07:19:46.980Z,90.27
2019-02-19T07:25:07.794Z,90.22
2019-02-19T07:30:27.681Z,89.97
2019-02-19T07:35:46.979Z,89.97
2019-02-19T07:41:06.615Z,90.17
2019-02-19T07:46:25.822Z,90.13
2019-02-19T07:51:45.332Z,89.96
2019-02-19T07:57:04.802Z,89.54
2019-02-19T08:02:25.039Z,89.54
2019-02-19T08:07:44.318Z,89.14
2019-02-19T08:13:03.237Z,89.18
2019-02-19T08:18:25.048Z,88.33
2019-02-19T08:23:43.374Z,88.13
2019-02-19T08:29:13.277Z,87.89
2019-02-19T08:34:22.851Z,87.38
2019-02-19T08:39:42.792Z,86.93
2019-02-19T08:45:02.150Z,86.67
2019-02-19T08:50:21.430Z,80.73
2019-02-19T08:55:40.995Z,77.20
2019-02-19T09:01:00.621Z,72.82
2019-02-19T09:06:20.927Z,69.67
2019-02-19T09:11:40.114Z,68.21
2019-02-19T09:16:59.428Z,64.66
2019-02-19T09:22:18.803Z,63.33
2019-02-19T09:27:38.626Z,61.23
2019-02-19T09:32:57.792Z,57.31
2019-02-19T09:38:17.413Z,58.92
2019-02-19T09:43:36.996Z,55.81
2019-02-19T09:48:56.379Z,57.76
2019-02-19T09:54:16.721Z,58.18
2019-02-19T09:59:35.737Z,55.62
2019-02-19T10:04:54.865Z,52.48
2019-02-19T10:10:15.286Z,55.92
2019-02-19T10:15:34.717Z,52.19
2019-02-19T10:20:54.227Z,51.82
2019-02-19T10:26:14.252Z,51.02
2019-02-19T10:31:33.890Z,50.56
2019-02-19T10:36:53.913Z,51.09
2019-02-19T10:42:12.999Z,49.74
2019-02-19T10:47:32.503Z,51.50
2019-02-19T10:52:51.983Z,49.51
2019-02-19T10:58:11.615Z,48.90
2019-02-19T11:03:30.437Z,47.84
2019-02-19T11:08:50.574Z,46.75
2019-02-19T11:14:10.158Z,44.77
2019-02-19T11:19:30.017Z,45.83
2019-02-19T11:24:49.809Z,41.93
2019-02-19T11:30:12.174Z,36.92
2019-02-19T11:35:31.629Z,36.43
2019-02-19T11:40:52.036Z,38.56
2019-02-19T11:46:12.834Z,39.16
2019-02-19T11:51:32.537Z,39.24
2019-02-19T11:56:52.043Z,37.64
2019-02-19T12:02:13.952Z,34.33
2019-02-19T12:07:33.261Z,29.42
2019-02-19T12:12:52.242Z,26.58
2019-02-19T12:18:13.042Z,24.72
2019-02-19T12:23:32.515Z,25.88
2019-02-19T12:28:52.155Z,23.40
2019-02-19T12:34:12.223Z,22.92
2019-02-19T12:39:31.796Z,25.70
2019-02-19T12:44:51.217Z,27.76
2019-02-19T12:50:11.552Z,29.59
2019-02-19T12:55:30.932Z,29.49
2019-02-19T13:00:50.628Z,30.38
2019-02-19T13:06:09.730Z,30.27
2019-02-19T13:11:30.392Z,27.61
2019-02-19T13:16:50.937Z,27.20
2019-02-19T13:22:10.372Z,28.28
2019-02-19T13:27:30.200Z,26.88
2019-02-19T13:32:49.212Z,25.55
2019-02-19T13:38:09.583Z,24.16
2019-02-19T13:43:28.998Z,26.26
2019-02-19T13:48:48.913Z,26.21
2019-02-19T13:54:15.139Z,26.16
2019-02-19T13:59:35.089Z,26.25
2019-02-19T14:04:55.765Z,26.92
